sensor_id;sensor_type;location;lat;lon;timestamp;P1;durP1;ratioP1;P2;durP2;ratioP2
40012;SDS011;37387;42.672;23.334;2022-12-29T00:00:13;50.1;;;28.5;;
40012;SDS011;37387;42.672;23.334;2022-12-29T00:01:13;50.1;;;29.7;;
40012;SDS011;37387;42.672;23.334;2022-12-29T00:02:13;53.5;;;28.8;;
40012;SDS011;37387;42.672;23.334;2022-12-29T00:03:13;52.0;;;28.7;;
40012;SDS011;37387;42.672;23.334;2022-12-29T00:04:13;52.0;;;29.2;;
40012;SDS011;37387;42.672;23.334;2022-12-29T00:05:12;53.1;;;29.6;;
40012;SDS011;37387;42.672;23.334;2022-12-29T00:06:12;54.9;;;28.8;;
40012;SDS011;37387;42.672;23.334;2022-12-29T00:07:12;59.3;;;31.5;;
40012;SDS011;37387;42.672;23.334;2022-12-29T00:08:12;59.3;;;30.0;;
40012;SDS011;37387;42.672;23.334;2022-12-29T00:09:13;52.9;;;31.2;;
40012;SDS011;37387;42.672;23.334;2022-12-29T00:10:12;60.7;;;32.8;;
40012;SDS011;37387;42.672;23.334;2022-12-29T00:11:13;60.7;;;31.3;;
40012;SDS011;37387;42.672;23.334;2022-12-29T00:12:12;58.8;;;32.0;;
40012;SDS011;37387;42.672;23.334;2022-12-29T00:13:12;56.2;;;30.7;;
40012;SDS011;37387;42.672;23.334;2022-12-29T00:14:12;56.2;;;30.8;;
40012;SDS011;37387;42.672;23.334;2022-12-29T00:15:12;56.6;;;30.7;;
40012;SDS011;37387;42.672;23.334;2022-12-29T00:16:11;59.6;;;31.2;;
40012;SDS011;37387;42.672;23.334;2022-12-29T00:17:11;59.6;;;30.0;;
40012;SDS011;37387;42.672;23.334;2022-12-29T00:18:11;58.5;;;30.3;;
40012;SDS011;37387;42.672;23.334;2022-12-29T00:19:11;55.6;;;30.2;;
40012;SDS011;37387;42.672;23.334;2022-12-29T00:20:11;55.2;;;29.9;;
40012;SDS011;37387;42.672;23.334;2022-12-29T00:21:12;55.2;;;31.1;;
40012;SDS011;37387;42.672;23.334;2022-12-29T00:22:11;56.1;;;30.7;;
40012;SDS011;37387;42.672;23.334;2022-12-29T00:23:11;61.5;;;31.0;;
40012;SDS011;37387;42.672;23.334;2022-12-29T00:24:12;61.5;;;30.5;;
40012;SDS011;37387;42.672;23.334;2022-12-29T00:25:11;56.3;;;30.7;;
40012;SDS011;37387;42.672;23.334;2022-12-29T00:26:12;54.7;;;29.6;;
40012;SDS011;37387;42.672;23.334;2022-12-29T00:27:11;55.4;;;31.2;;
40012;SDS011;37387;42.672;23.334;2022-12-29T00:28:11;55.4;;;30.1;;
40012;SDS011;37387;42.672;23.334;2022-12-29T00:29:10;59.8;;;30.8;;
40012;SDS011;37387;42.672;23.334;2022-12-29T00:30:11;59.8;;;29.3;;
40012;SDS011;37387;42.672;23.334;2022-12-29T00:31:11;55.1;;;29.5;;
40012;SDS011;37387;42.672;23.334;2022-12-29T00:32:10;55.1;;;29.3;;
40012;SDS011;37387;42.672;23.334;2022-12-29T00:33:10;54.7;;;28.9;;
40012;SDS011;37387;42.672;23.334;2022-12-29T00:34:10;54.7;;;28.6;;
40012;SDS011;37387;42.672;23.334;2022-12-29T00:35:11;56.5;;;28.2;;
40012;SDS011;37387;42.672;23.334;2022-12-29T00:36:11;52.5;;;27.6;;
40012;SDS011;37387;42.672;23.334;2022-12-29T00:37:10;47.8;;;29.1;;
40012;SDS011;37387;42.672;23.334;2022-12-29T00:38:10;51.1;;;27.5;;
40012;SDS011;37387;42.672;23.334;2022-12-29T00:39:11;51.1;;;25.8;;
40012;SDS011;37387;42.672;23.334;2022-12-29T00:40:10;50.0;;;27.1;;
40012;SDS011;37387;42.672;23.334;2022-12-29T00:41:10;48.1;;;28.1;;
40012;SDS011;37387;42.672;23.334;2022-12-29T00:42:09;49.9;;;26.5;;
40012;SDS011;37387;42.672;23.334;2022-12-29T00:43:09;49.9;;;26.6;;
40012;SDS011;37387;42.672;23.334;2022-12-29T00:44:11;46.1;;;27.0;;
40012;SDS011;37387;42.672;23.334;2022-12-29T00:45:09;51.6;;;28.9;;
40012;SDS011;37387;42.672;23.334;2022-12-29T00:46:09;56.8;;;27.7;;
40012;SDS011;37387;42.672;23.334;2022-12-29T00:47:09;52.5;;;28.7;;
40012;SDS011;37387;42.672;23.334;2022-12-29T00:48:09;52.5;;;28.5;;
40012;SDS011;37387;42.672;23.334;2022-12-29T00:49:10;56.9;;;28.8;;
40012;SDS011;37387;42.672;23.334;2022-12-29T00:50:09;52.4;;;28.2;;
40012;SDS011;37387;42.672;23.334;2022-12-29T00:51:09;51.4;;;27.4;;
40012;SDS011;37387;42.672;23.334;2022-12-29T00:52:10;51.7;;;28.9;;
40012;SDS011;37387;42.672;23.334;2022-12-29T00:53:09;52.0;;;28.1;;
40012;SDS011;37387;42.672;23.334;2022-12-29T00:54:09;49.7;;;27.3;;
40012;SDS011;37387;42.672;23.334;2022-12-29T00:55:08;49.7;;;29.1;;
40012;SDS011;37387;42.672;23.334;2022-12-29T00:56:08;52.6;;;28.9;;
40012;SDS011;37387;42.672;23.334;2022-12-29T00:57:09;53.5;;;27.2;;
40012;SDS011;37387;42.672;23.334;2022-12-29T00:58:08;50.6;;;26.8;;
40012;SDS011;37387;42.672;23.334;2022-12-29T00:59:09;47.2;;;27.2;;
40012;SDS011;37387;42.672;23.334;2022-12-29T01:00:09;45.5;;;26.6;;
40012;SDS011;37387;42.672;23.334;2022-12-29T01:01:08;49.5;;;25.8;;
40012;SDS011;37387;42.672;23.334;2022-12-29T01:02:08;44.6;;;25.2;;
40012;SDS011;37387;42.672;23.334;2022-12-29T01:03:08;44.6;;;24.6;;
40012;SDS011;37387;42.672;23.334;2022-12-29T01:04:08;43.2;;;26.2;;
40012;SDS011;37387;42.672;23.334;2022-12-29T01:05:08;47.3;;;24.9;;
40012;SDS011;37387;42.672;23.334;2022-12-29T01:06:08;47.3;;;23.9;;
40012;SDS011;37387;42.672;23.334;2022-12-29T01:08:07;45.9;;;25.2;;
40012;SDS011;37387;42.672;23.334;2022-12-29T01:09:08;45.9;;;24.3;;
40012;SDS011;37387;42.672;23.334;2022-12-29T01:10:07;42.8;;;23.4;;
40012;SDS011;37387;42.672;23.334;2022-12-29T01:11:08;42.8;;;24.2;;
40012;SDS011;37387;42.672;23.334;2022-12-29T01:12:07;48.7;;;24.0;;
40012;SDS011;37387;42.672;23.334;2022-12-29T01:13:07;45.3;;;23.9;;
40012;SDS011;37387;42.672;23.334;2022-12-29T01:14:07;40.4;;;22.4;;
40012;SDS011;37387;42.672;23.334;2022-12-29T01:15:08;40.4;;;22.7;;
40012;SDS011;37387;42.672;23.334;2022-12-29T01:17:07;40.4;;;20.9;;
40012;SDS011;37387;42.672;23.334;2022-12-29T01:18:07;35.6;;;21.9;;
40012;SDS011;37387;42.672;23.334;2022-12-29T01:19:06;38.8;;;21.2;;
40012;SDS011;37387;42.672;23.334;2022-12-29T01:20:07;37.9;;;21.7;;
40012;SDS011;37387;42.672;23.334;2022-12-29T01:21:06;41.8;;;20.4;;
40012;SDS011;37387;42.672;23.334;2022-12-29T01:22:06;36.8;;;21.0;;
40012;SDS011;37387;42.672;23.334;2022-12-29T01:24:06;39.2;;;21.1;;
40012;SDS011;37387;42.672;23.334;2022-12-29T01:25:06;36.6;;;20.4;;
40012;SDS011;37387;42.672;23.334;2022-12-29T01:26:09;34.3;;;20.9;;
40012;SDS011;37387;42.672;23.334;2022-12-29T01:27:06;38.3;;;21.0;;
40012;SDS011;37387;42.672;23.334;2022-12-29T01:28:06;38.0;;;19.8;;
40012;SDS011;37387;42.672;23.334;2022-12-29T01:29:06;36.1;;;20.4;;
40012;SDS011;37387;42.672;23.334;2022-12-29T01:30:06;37.0;;;19.3;;
40012;SDS011;37387;42.672;23.334;2022-12-29T01:31:05;34.5;;;19.8;;
40012;SDS011;37387;42.672;23.334;2022-12-29T01:32:05;35.2;;;18.5;;
40012;SDS011;37387;42.672;23.334;2022-12-29T01:33:05;33.9;;;19.3;;
40012;SDS011;37387;42.672;23.334;2022-12-29T01:34:05;33.9;;;20.7;;
40012;SDS011;37387;42.672;23.334;2022-12-29T01:35:05;37.8;;;19.4;;
40012;SDS011;37387;42.672;23.334;2022-12-29T01:36:06;32.2;;;19.3;;
40012;SDS011;37387;42.672;23.334;2022-12-29T01:37:05;32.2;;;19.6;;
40012;SDS011;37387;42.672;23.334;2022-12-29T01:38:05;34.2;;;19.9;;
40012;SDS011;37387;42.672;23.334;2022-12-29T01:39:05;35.3;;;19.6;;
40012;SDS011;37387;42.672;23.334;2022-12-29T01:40:05;34.4;;;20.3;;
40012;SDS011;37387;42.672;23.334;2022-12-29T01:41:05;34.9;;;19.3;;
40012;SDS011;37387;42.672;23.334;2022-12-29T01:42:05;34.9;;;19.1;;
40012;SDS011;37387;42.672;23.334;2022-12-29T01:43:07;35.8;;;19.7;;
40012;SDS011;37387;42.672;23.334;2022-12-29T01:46:04;34.7;;;20.1;;
40012;SDS011;37387;42.672;23.334;2022-12-29T01:47:04;36.7;;;20.0;;
40012;SDS011;37387;42.672;23.334;2022-12-29T01:48:04;39.7;;;19.7;;
40012;SDS011;37387;42.672;23.334;2022-12-29T01:49:07;36.2;;;20.3;;
40012;SDS011;37387;42.672;23.334;2022-12-29T01:50:05;39.5;;;20.0;;
40012;SDS011;37387;42.672;23.334;2022-12-29T01:51:04;36.2;;;19.3;;
40012;SDS011;37387;42.672;23.334;2022-12-29T01:52:04;35.2;;;19.8;;
40012;SDS011;37387;42.672;23.334;2022-12-29T01:53:04;37.2;;;19.9;;
40012;SDS011;37387;42.672;23.334;2022-12-29T01:54:04;37.2;;;20.5;;
40012;SDS011;37387;42.672;23.334;2022-12-29T01:55:04;36.5;;;19.5;;
40012;SDS011;37387;42.672;23.334;2022-12-29T01:56:04;33.7;;;18.9;;
40012;SDS011;37387;42.672;23.334;2022-12-29T01:57:04;33.4;;;19.2;;
40012;SDS011;37387;42.672;23.334;2022-12-29T01:58:04;34.9;;;18.5;;
40012;SDS011;37387;42.672;23.334;2022-12-29T01:59:04;32.4;;;19.1;;
40012;SDS011;37387;42.672;23.334;2022-12-29T02:00:04;32.4;;;19.5;;
40012;SDS011;37387;42.672;23.334;2022-12-29T02:01:03;34.4;;;18.4;;
40012;SDS011;37387;42.672;23.334;2022-12-29T02:02:03;34.0;;;18.7;;
40012;SDS011;37387;42.672;23.334;2022-12-29T02:03:03;34.3;;;17.0;;
40012;SDS011;37387;42.672;23.334;2022-12-29T02:04:03;31.1;;;19.6;;
40012;SDS011;37387;42.672;23.334;2022-12-29T02:05:04;35.0;;;18.1;;
40012;SDS011;37387;42.672;23.334;2022-12-29T02:06:03;31.9;;;18.5;;
40012;SDS011;37387;42.672;23.334;2022-12-29T02:07:03;34.2;;;19.2;;
40012;SDS011;37387;42.672;23.334;2022-12-29T02:08:02;32.9;;;18.2;;
40012;SDS011;37387;42.672;23.334;2022-12-29T02:10:03;30.9;;;17.8;;
40012;SDS011;37387;42.672;23.334;2022-12-29T02:11:02;30.9;;;18.6;;
40012;SDS011;37387;42.672;23.334;2022-12-29T02:12:02;32.2;;;18.1;;
40012;SDS011;37387;42.672;23.334;2022-12-29T02:15:02;30.4;;;18.0;;
40012;SDS011;37387;42.672;23.334;2022-12-29T02:16:04;32.5;;;18.4;;
40012;SDS011;37387;42.672;23.334;2022-12-29T02:17:04;33.5;;;18.3;;
40012;SDS011;37387;42.672;23.334;2022-12-29T02:18:02;33.8;;;18.2;;
40012;SDS011;37387;42.672;23.334;2022-12-29T02:20:10;34.4;;;17.4;;
40012;SDS011;37387;42.672;23.334;2022-12-29T02:22:02;31.3;;;17.6;;
40012;SDS011;37387;42.672;23.334;2022-12-29T02:23:06;31.3;;;18.0;;
40012;SDS011;37387;42.672;23.334;2022-12-29T02:24:06;31.2;;;17.4;;
40012;SDS011;37387;42.672;23.334;2022-12-29T02:25:03;32.0;;;17.7;;
40012;SDS011;37387;42.672;23.334;2022-12-29T02:27:06;30.4;;;17.3;;
40012;SDS011;37387;42.672;23.334;2022-12-29T02:28:06;29.4;;;18.2;;
40012;SDS011;37387;42.672;23.334;2022-12-29T02:29:02;31.6;;;17.7;;
40012;SDS011;37387;42.672;23.334;2022-12-29T02:30:03;31.6;;;16.6;;
40012;SDS011;37387;42.672;23.334;2022-12-29T02:31:00;29.5;;;16.5;;
40012;SDS011;37387;42.672;23.334;2022-12-29T02:32:01;28.0;;;17.1;;
40012;SDS011;37387;42.672;23.334;2022-12-29T02:35:01;29.5;;;17.3;;
40012;SDS011;37387;42.672;23.334;2022-12-29T02:36:01;31.2;;;17.4;;
40012;SDS011;37387;42.672;23.334;2022-12-29T02:37:02;31.6;;;17.8;;
40012;SDS011;37387;42.672;23.334;2022-12-29T02:38:03;31.6;;;19.0;;
40012;SDS011;37387;42.672;23.334;2022-12-29T02:39:01;30.8;;;18.1;;
40012;SDS011;37387;42.672;23.334;2022-12-29T02:40:01;30.8;;;17.3;;
40012;SDS011;37387;42.672;23.334;2022-12-29T02:41:01;29.5;;;17.6;;
40012;SDS011;37387;42.672;23.334;2022-12-29T02:43:01;31.6;;;18.2;;
40012;SDS011;37387;42.672;23.334;2022-12-29T02:44:01;28.7;;;17.8;;
40012;SDS011;37387;42.672;23.334;2022-12-29T02:44:59;30.7;;;17.4;;
40012;SDS011;37387;42.672;23.334;2022-12-29T02:45:59;30.7;;;18.1;;
40012;SDS011;37387;42.672;23.334;2022-12-29T02:47:00;30.8;;;16.3;;
40012;SDS011;37387;42.672;23.334;2022-12-29T02:48:01;30.9;;;17.0;;
40012;SDS011;37387;42.672;23.334;2022-12-29T02:49:01;30.9;;;18.7;;
40012;SDS011;37387;42.672;23.334;2022-12-29T02:50:00;26.4;;;15.8;;
40012;SDS011;37387;42.672;23.334;2022-12-29T02:50:59;26.4;;;16.0;;
40012;SDS011;37387;42.672;23.334;2022-12-29T02:52:00;29.4;;;15.7;;
40012;SDS011;37387;42.672;23.334;2022-12-29T02:52:59;29.6;;;17.0;;
40012;SDS011;37387;42.672;23.334;2022-12-29T02:53:58;29.8;;;16.8;;
40012;SDS011;37387;42.672;23.334;2022-12-29T02:55:58;28.8;;;17.0;;
40012;SDS011;37387;42.672;23.334;2022-12-29T02:56:58;28.8;;;16.3;;
40012;SDS011;37387;42.672;23.334;2022-12-29T02:58:58;28.5;;;16.6;;
40012;SDS011;37387;42.672;23.334;2022-12-29T03:00:00;26.4;;;16.9;;
40012;SDS011;37387;42.672;23.334;2022-12-29T03:01:02;26.4;;;16.0;;
40012;SDS011;37387;42.672;23.334;2022-12-29T03:02:05;27.1;;;16.3;;
40012;SDS011;37387;42.672;23.334;2022-12-29T03:03:04;30.0;;;15.9;;
40012;SDS011;37387;42.672;23.334;2022-12-29T03:04:02;28.1;;;16.9;;
40012;SDS011;37387;42.672;23.334;2022-12-29T03:05:04;29.5;;;16.8;;
40012;SDS011;37387;42.672;23.334;2022-12-29T03:06:00;28.6;;;16.4;;
40012;SDS011;37387;42.672;23.334;2022-12-29T03:06:59;28.6;;;17.1;;
40012;SDS011;37387;42.672;23.334;2022-12-29T03:08:00;31.7;;;17.7;;
40012;SDS011;37387;42.672;23.334;2022-12-29T03:08:59;32.2;;;18.1;;
40012;SDS011;37387;42.672;23.334;2022-12-29T03:09:59;29.9;;;16.7;;
40012;SDS011;37387;42.672;23.334;2022-12-29T03:10:59;29.4;;;17.0;;
40012;SDS011;37387;42.672;23.334;2022-12-29T03:11:58;29.4;;;18.4;;
40012;SDS011;37387;42.672;23.334;2022-12-29T03:13:01;32.4;;;17.4;;
40012;SDS011;37387;42.672;23.334;2022-12-29T03:13:59;30.0;;;18.5;;
40012;SDS011;37387;42.672;23.334;2022-12-29T03:14:57;33.9;;;18.3;;
40012;SDS011;37387;42.672;23.334;2022-12-29T03:16:00;32.2;;;18.2;;
40012;SDS011;37387;42.672;23.334;2022-12-29T03:16:58;32.2;;;17.9;;
40012;SDS011;37387;42.672;23.334;2022-12-29T03:17:57;33.1;;;17.3;;
40012;SDS011;37387;42.672;23.334;2022-12-29T03:18:58;31.8;;;18.3;;
40012;SDS011;37387;42.672;23.334;2022-12-29T03:19:58;31.1;;;16.8;;
40012;SDS011;37387;42.672;23.334;2022-12-29T03:20:57;30.1;;;17.9;;
40012;SDS011;37387;42.672;23.334;2022-12-29T03:21:57;31.3;;;18.2;;
40012;SDS011;37387;42.672;23.334;2022-12-29T03:22:58;34.0;;;18.0;;
40012;SDS011;37387;42.672;23.334;2022-12-29T03:23:56;34.2;;;17.9;;
40012;SDS011;37387;42.672;23.334;2022-12-29T03:24:57;31.9;;;17.5;;
40012;SDS011;37387;42.672;23.334;2022-12-29T03:25:57;33.9;;;18.6;;
40012;SDS011;37387;42.672;23.334;2022-12-29T03:26:58;32.5;;;18.5;;
40012;SDS011;37387;42.672;23.334;2022-12-29T03:27:56;32.5;;;18.1;;
40012;SDS011;37387;42.672;23.334;2022-12-29T03:28:56;32.9;;;17.8;;
40012;SDS011;37387;42.672;23.334;2022-12-29T03:29:57;32.9;;;19.1;;
40012;SDS011;37387;42.672;23.334;2022-12-29T03:30:55;32.4;;;18.8;;
40012;SDS011;37387;42.672;23.334;2022-12-29T03:31:55;34.3;;;18.9;;
40012;SDS011;37387;42.672;23.334;2022-12-29T03:32:57;37.4;;;19.5;;
40012;SDS011;37387;42.672;23.334;2022-12-29T03:33:55;37.4;;;19.9;;
40012;SDS011;37387;42.672;23.334;2022-12-29T03:34:55;35.5;;;19.2;;
40012;SDS011;37387;42.672;23.334;2022-12-29T03:35:56;37.4;;;18.8;;
40012;SDS011;37387;42.672;23.334;2022-12-29T03:36:57;34.4;;;20.0;;
40012;SDS011;37387;42.672;23.334;2022-12-29T03:37:57;36.1;;;19.7;;
40012;SDS011;37387;42.672;23.334;2022-12-29T03:38:57;33.4;;;18.6;;
40012;SDS011;37387;42.672;23.334;2022-12-29T03:39:55;33.4;;;19.3;;
40012;SDS011;37387;42.672;23.334;2022-12-29T03:40:56;36.1;;;19.8;;
40012;SDS011;37387;42.672;23.334;2022-12-29T03:42:54;42.1;;;21.6;;
40012;SDS011;37387;42.672;23.334;2022-12-29T03:44:55;39.4;;;20.2;;
40012;SDS011;37387;42.672;23.334;2022-12-29T03:45:54;38.9;;;20.9;;
40012;SDS011;37387;42.672;23.334;2022-12-29T03:46:54;38.9;;;21.6;;
40012;SDS011;37387;42.672;23.334;2022-12-29T03:47:54;39.6;;;21.0;;
40012;SDS011;37387;42.672;23.334;2022-12-29T03:48:54;38.9;;;21.2;;
40012;SDS011;37387;42.672;23.334;2022-12-29T03:49:54;44.0;;;21.1;;
40012;SDS011;37387;42.672;23.334;2022-12-29T03:50:54;36.2;;;20.8;;
40012;SDS011;37387;42.672;23.334;2022-12-29T03:51:54;39.1;;;20.1;;
40012;SDS011;37387;42.672;23.334;2022-12-29T03:52:54;42.3;;;22.1;;
40012;SDS011;37387;42.672;23.334;2022-12-29T03:53:53;42.3;;;21.1;;
40012;SDS011;37387;42.672;23.334;2022-12-29T03:54:53;38.0;;;21.9;;
40012;SDS011;37387;42.672;23.334;2022-12-29T03:55:53;38.0;;;21.2;;
40012;SDS011;37387;42.672;23.334;2022-12-29T03:56:53;39.9;;;21.5;;
40012;SDS011;37387;42.672;23.334;2022-12-29T03:57:53;41.7;;;22.2;;
40012;SDS011;37387;42.672;23.334;2022-12-29T03:58:53;44.1;;;21.9;;
40012;SDS011;37387;42.672;23.334;2022-12-29T03:59:53;44.1;;;22.5;;
40012;SDS011;37387;42.672;23.334;2022-12-29T04:00:53;40.3;;;21.8;;
40012;SDS011;37387;42.672;23.334;2022-12-29T04:01:53;44.3;;;22.9;;
40012;SDS011;37387;42.672;23.334;2022-12-29T04:02:53;44.3;;;22.0;;
40012;SDS011;37387;42.672;23.334;2022-12-29T04:03:53;40.6;;;22.2;;
40012;SDS011;37387;42.672;23.334;2022-12-29T04:04:52;41.0;;;22.0;;
40012;SDS011;37387;42.672;23.334;2022-12-29T04:05:52;43.3;;;22.5;;
40012;SDS011;37387;42.672;23.334;2022-12-29T04:06:52;43.3;;;23.5;;
40012;SDS011;37387;42.672;23.334;2022-12-29T04:07:52;42.6;;;22.6;;
40012;SDS011;37387;42.672;23.334;2022-12-29T04:09:52;44.1;;;23.1;;
40012;SDS011;37387;42.672;23.334;2022-12-29T04:10:52;39.9;;;21.5;;
40012;SDS011;37387;42.672;23.334;2022-12-29T04:11:52;43.0;;;23.5;;
40012;SDS011;37387;42.672;23.334;2022-12-29T04:12:52;45.0;;;22.1;;
40012;SDS011;37387;42.672;23.334;2022-12-29T04:13:52;45.0;;;21.8;;
40012;SDS011;37387;42.672;23.334;2022-12-29T04:14:51;42.4;;;23.1;;
40012;SDS011;37387;42.672;23.334;2022-12-29T04:15:51;42.7;;;22.7;;
40012;SDS011;37387;42.672;23.334;2022-12-29T04:16:51;43.4;;;22.4;;
40012;SDS011;37387;42.672;23.334;2022-12-29T04:17:51;43.0;;;22.7;;
40012;SDS011;37387;42.672;23.334;2022-12-29T04:18:51;43.0;;;21.9;;
40012;SDS011;37387;42.672;23.334;2022-12-29T04:19:51;42.9;;;22.2;;
40012;SDS011;37387;42.672;23.334;2022-12-29T04:21:51;44.5;;;23.1;;
40012;SDS011;37387;42.672;23.334;2022-12-29T04:22:56;44.5;;;22.6;;
40012;SDS011;37387;42.672;23.334;2022-12-29T04:23:51;43.2;;;22.3;;
40012;SDS011;37387;42.672;23.334;2022-12-29T04:24:51;43.2;;;21.6;;
40012;SDS011;37387;42.672;23.334;2022-12-29T04:25:50;47.8;;;23.4;;
40012;SDS011;37387;42.672;23.334;2022-12-29T04:26:50;43.2;;;20.7;;
40012;SDS011;37387;42.672;23.334;2022-12-29T04:27:50;43.2;;;23.9;;
40012;SDS011;37387;42.672;23.334;2022-12-29T04:28:50;44.9;;;22.9;;
40012;SDS011;37387;42.672;23.334;2022-12-29T04:29:50;45.1;;;23.4;;
40012;SDS011;37387;42.672;23.334;2022-12-29T04:30:50;45.1;;;23.1;;
40012;SDS011;37387;42.672;23.334;2022-12-29T04:31:50;44.3;;;22.5;;
40012;SDS011;37387;42.672;23.334;2022-12-29T04:32:50;42.8;;;23.3;;
40012;SDS011;37387;42.672;23.334;2022-12-29T04:33:50;44.5;;;23.7;;
40012;SDS011;37387;42.672;23.334;2022-12-29T04:34:49;50.9;;;22.4;;
40012;SDS011;37387;42.672;23.334;2022-12-29T04:35:49;45.4;;;23.2;;
40012;SDS011;37387;42.672;23.334;2022-12-29T04:36:49;47.6;;;22.7;;
40012;SDS011;37387;42.672;23.334;2022-12-29T04:37:49;45.6;;;22.8;;
40012;SDS011;37387;42.672;23.334;2022-12-29T04:38:49;45.6;;;23.7;;
40012;SDS011;37387;42.672;23.334;2022-12-29T04:39:49;45.2;;;23.6;;
40012;SDS011;37387;42.672;23.334;2022-12-29T04:40:49;45.2;;;22.5;;
40012;SDS011;37387;42.672;23.334;2022-12-29T04:41:49;45.0;;;23.4;;
40012;SDS011;37387;42.672;23.334;2022-12-29T04:42:49;46.5;;;23.8;;
40012;SDS011;37387;42.672;23.334;2022-12-29T04:43:49;49.1;;;22.8;;
40012;SDS011;37387;42.672;23.334;2022-12-29T04:44:48;46.2;;;22.6;;
40012;SDS011;37387;42.672;23.334;2022-12-29T04:45:48;46.2;;;21.9;;
40012;SDS011;37387;42.672;23.334;2022-12-29T04:46:48;42.8;;;22.3;;
40012;SDS011;37387;42.672;23.334;2022-12-29T04:48:48;43.6;;;22.8;;
40012;SDS011;37387;42.672;23.334;2022-12-29T04:49:48;42.5;;;22.2;;
40012;SDS011;37387;42.672;23.334;2022-12-29T04:50:48;43.4;;;22.3;;
40012;SDS011;37387;42.672;23.334;2022-12-29T04:51:48;45.2;;;23.3;;
40012;SDS011;37387;42.672;23.334;2022-12-29T04:52:48;45.2;;;24.5;;
40012;SDS011;37387;42.672;23.334;2022-12-29T04:53:48;46.7;;;23.1;;
40012;SDS011;37387;42.672;23.334;2022-12-29T04:54:47;47.0;;;23.9;;
40012;SDS011;37387;42.672;23.334;2022-12-29T04:55:48;49.8;;;22.7;;
40012;SDS011;37387;42.672;23.334;2022-12-29T04:56:47;46.5;;;22.9;;
40012;SDS011;37387;42.672;23.334;2022-12-29T04:57:47;48.6;;;23.1;;
40012;SDS011;37387;42.672;23.334;2022-12-29T04:58:47;43.2;;;22.8;;
40012;SDS011;37387;42.672;23.334;2022-12-29T04:59:47;43.2;;;23.4;;
40012;SDS011;37387;42.672;23.334;2022-12-29T05:00:47;48.8;;;23.1;;
40012;SDS011;37387;42.672;23.334;2022-12-29T05:01:47;45.9;;;24.3;;
40012;SDS011;37387;42.672;23.334;2022-12-29T05:02:47;45.7;;;21.9;;
40012;SDS011;37387;42.672;23.334;2022-12-29T05:03:47;45.7;;;22.3;;
40012;SDS011;37387;42.672;23.334;2022-12-29T05:04:46;47.8;;;23.6;;
40012;SDS011;37387;42.672;23.334;2022-12-29T05:05:46;48.3;;;24.3;;
40012;SDS011;37387;42.672;23.334;2022-12-29T05:06:46;49.8;;;23.2;;
40012;SDS011;37387;42.672;23.334;2022-12-29T05:07:46;49.8;;;22.6;;
40012;SDS011;37387;42.672;23.334;2022-12-29T05:08:46;42.7;;;23.1;;
40012;SDS011;37387;42.672;23.334;2022-12-29T05:09:46;44.7;;;24.8;;
40012;SDS011;37387;42.672;23.334;2022-12-29T05:10:46;49.3;;;23.3;;
40012;SDS011;37387;42.672;23.334;2022-12-29T05:11:46;49.3;;;24.0;;
40012;SDS011;37387;42.672;23.334;2022-12-29T05:12:46;48.9;;;24.4;;
40012;SDS011;37387;42.672;23.334;2022-12-29T05:14:45;47.2;;;23.2;;
40012;SDS011;37387;42.672;23.334;2022-12-29T05:15:47;47.3;;;23.1;;
40012;SDS011;37387;42.672;23.334;2022-12-29T05:16:45;45.8;;;22.1;;
40012;SDS011;37387;42.672;23.334;2022-12-29T05:17:45;47.0;;;22.6;;
40012;SDS011;37387;42.672;23.334;2022-12-29T05:18:45;47.0;;;23.3;;
40012;SDS011;37387;42.672;23.334;2022-12-29T05:19:45;44.7;;;21.9;;
40012;SDS011;37387;42.672;23.334;2022-12-29T05:20:45;44.5;;;22.2;;
40012;SDS011;37387;42.672;23.334;2022-12-29T05:21:45;40.9;;;21.8;;
40012;SDS011;37387;42.672;23.334;2022-12-29T05:22:45;41.9;;;24.0;;
40012;SDS011;37387;42.672;23.334;2022-12-29T05:23:44;47.1;;;21.9;;
40012;SDS011;37387;42.672;23.334;2022-12-29T05:24:44;48.7;;;22.0;;
40012;SDS011;37387;42.672;23.334;2022-12-29T05:25:44;46.4;;;21.6;;
40012;SDS011;37387;42.672;23.334;2022-12-29T05:26:44;44.3;;;23.4;;
40012;SDS011;37387;42.672;23.334;2022-12-29T05:27:44;40.8;;;21.3;;
40012;SDS011;37387;42.672;23.334;2022-12-29T05:28:44;40.8;;;21.9;;
40012;SDS011;37387;42.672;23.334;2022-12-29T05:29:44;42.7;;;22.4;;
40012;SDS011;37387;42.672;23.334;2022-12-29T05:30:44;43.3;;;21.1;;
40012;SDS011;37387;42.672;23.334;2022-12-29T05:31:44;45.9;;;22.1;;
40012;SDS011;37387;42.672;23.334;2022-12-29T05:32:44;41.3;;;21.8;;
40012;SDS011;37387;42.672;23.334;2022-12-29T05:33:44;41.3;;;20.5;;
40012;SDS011;37387;42.672;23.334;2022-12-29T05:34:43;41.9;;;21.6;;
40012;SDS011;37387;42.672;23.334;2022-12-29T05:35:43;43.2;;;21.3;;
40012;SDS011;37387;42.672;23.334;2022-12-29T05:36:43;41.4;;;21.2;;
40012;SDS011;37387;42.672;23.334;2022-12-29T05:37:43;40.2;;;20.5;;
40012;SDS011;37387;42.672;23.334;2022-12-29T05:38:43;40.2;;;21.1;;
40012;SDS011;37387;42.672;23.334;2022-12-29T05:39:43;41.8;;;21.5;;
40012;SDS011;37387;42.672;23.334;2022-12-29T05:40:43;41.8;;;20.5;;
40012;SDS011;37387;42.672;23.334;2022-12-29T05:41:43;42.9;;;21.9;;
40012;SDS011;37387;42.672;23.334;2022-12-29T05:44:43;45.2;;;22.1;;
40012;SDS011;37387;42.672;23.334;2022-12-29T05:45:42;44.1;;;21.9;;
40012;SDS011;37387;42.672;23.334;2022-12-29T05:46:42;41.3;;;22.1;;
40012;SDS011;37387;42.672;23.334;2022-12-29T05:47:42;43.9;;;21.1;;
40012;SDS011;37387;42.672;23.334;2022-12-29T05:48:42;43.9;;;21.8;;
40012;SDS011;37387;42.672;23.334;2022-12-29T05:49:42;42.7;;;20.5;;
40012;SDS011;37387;42.672;23.334;2022-12-29T05:50:42;37.6;;;20.8;;
40012;SDS011;37387;42.672;23.334;2022-12-29T05:51:42;40.3;;;20.2;;
40012;SDS011;37387;42.672;23.334;2022-12-29T05:52:42;40.3;;;21.3;;
40012;SDS011;37387;42.672;23.334;2022-12-29T05:53:42;39.0;;;19.9;;
40012;SDS011;37387;42.672;23.334;2022-12-29T05:54:42;38.6;;;20.6;;
40012;SDS011;37387;42.672;23.334;2022-12-29T05:55:42;38.6;;;21.3;;
40012;SDS011;37387;42.672;23.334;2022-12-29T05:56:42;41.3;;;20.9;;
40012;SDS011;37387;42.672;23.334;2022-12-29T05:57:42;35.5;;;19.8;;
40012;SDS011;37387;42.672;23.334;2022-12-29T05:58:41;37.5;;;20.0;;
40012;SDS011;37387;42.672;23.334;2022-12-29T05:59:41;40.2;;;21.1;;
40012;SDS011;37387;42.672;23.334;2022-12-29T06:00:41;37.9;;;20.2;;
40012;SDS011;37387;42.672;23.334;2022-12-29T06:01:41;40.2;;;20.3;;
40012;SDS011;37387;42.672;23.334;2022-12-29T06:02:41;38.2;;;20.8;;
40012;SDS011;37387;42.672;23.334;2022-12-29T06:03:41;38.2;;;21.1;;
40012;SDS011;37387;42.672;23.334;2022-12-29T06:05:41;41.9;;;20.9;;
40012;SDS011;37387;42.672;23.334;2022-12-29T06:06:41;41.7;;;21.1;;
40012;SDS011;37387;42.672;23.334;2022-12-29T06:07:41;39.5;;;21.4;;
40012;SDS011;37387;42.672;23.334;2022-12-29T06:08:41;36.4;;;21.3;;
40012;SDS011;37387;42.672;23.334;2022-12-29T06:09:41;36.4;;;20.5;;
40012;SDS011;37387;42.672;23.334;2022-12-29T06:10:41;36.1;;;21.5;;
40012;SDS011;37387;42.672;23.334;2022-12-29T06:11:41;41.2;;;21.0;;
40012;SDS011;37387;42.672;23.334;2022-12-29T06:13:40;38.5;;;22.2;;
40012;SDS011;37387;42.672;23.334;2022-12-29T06:14:40;42.0;;;20.8;;
40012;SDS011;37387;42.672;23.334;2022-12-29T06:15:40;38.6;;;20.6;;
40012;SDS011;37387;42.672;23.334;2022-12-29T06:16:40;38.0;;;20.9;;
40012;SDS011;37387;42.672;23.334;2022-12-29T06:17:40;40.7;;;29.1;;
40012;SDS011;37387;42.672;23.334;2022-12-29T06:18:40;98.7;;;46.6;;
40012;SDS011;37387;42.672;23.334;2022-12-29T06:19:40;98.7;;;33.0;;
40012;SDS011;37387;42.672;23.334;2022-12-29T06:20:40;65.5;;;62.6;;